Time;durP1;ratioP1;P1;durP2;ratioP2;P2;SDS_P1;SDS_P2;PMS_P1;PMS_P2;Temp;Humidity;BMP_temperature;BMP_pressure;BME280_temperature;BME280_humidity;BME280_pressure;Samples;Min_cycle;Max_cycle;Signal;HPM_P1;HPM_P2
2023/10/25 00:01:36;;;;;;;9.80;8.70;;;8.30;99.90;;;;;;5052041;28;20783;-65
2023/10/25 00:04:03;;;;;;;11.23;8.32;;;8.20;99.90;;;;;;5052291;28;20212;-65
2023/10/25 00:06:31;;;;;;;14.35;9.90;;;8.20;99.90;;;;;;5052149;28;20297;-65
2023/10/25 00:08:58;;;;;;;11.55;10.35;;;8.20;99.90;;;;;;5052324;28;20236;-65
2023/10/25 00:11:25;;;;;;;12.07;9.75;;;8.20;99.90;;;;;;5052522;28;20290;-65
2023/10/25 00:13:52;;;;;;;11.13;8.75;;;8.20;99.90;;;;;;5040033;28;20313;-65
2023/10/25 00:16:19;;;;;;;11.70;9.73;;;8.20;99.90;;;;;;5031176;28;20584;-65
2023/10/25 00:18:45;;;;;;;9.18;7.75;;;8.20;99.90;;;;;;5032131;28;20242;-65
2023/10/25 00:21:12;;;;;;;9.80;7.70;;;8.20;99.90;;;;;;5032762;28;20211;-65
2023/10/25 00:23:40;;;;;;;13.02;8.38;;;8.20;99.90;;;;;;5031658;28;20231;-65
2023/10/25 00:26:07;;;;;;;10.10;8.93;;;8.20;99.90;;;;;;5032215;28;20211;-65
2023/10/25 00:28:34;;;;;;;10.27;9.02;;;8.20;99.90;;;;;;5032337;28;20226;-65
2023/10/25 00:31:01;;;;;;;10.85;8.68;;;8.20;99.90;;;;;;5051026;28;20654;-65
2023/10/25 00:33:28;;;;;;;11.38;8.75;;;8.20;99.90;;;;;;5052385;28;20301;-65
2023/10/25 00:35:54;;;;;;;12.77;8.40;;;8.10;99.90;;;;;;5051933;28;20305;-65
2023/10/25 00:38:22;;;;;;;10.20;8.13;;;8.10;99.90;;;;;;5052181;28;20230;-65
2023/10/25 00:40:50;;;;;;;10.05;8.57;;;8.20;99.90;;;;;;5051829;28;20237;-65
2023/10/25 00:43:19;;;;;;;8.88;7.97;;;8.20;99.90;;;;;;5051692;28;20380;-65
2023/10/25 00:46:03;;;;;;;10.15;9.02;;;8.10;99.90;;;;;;5051392;28;20210;-65
2023/10/25 00:48:30;;;;;;;8.13;7.32;;;8.10;99.90;;;;;;5051644;28;20214;-65
2023/10/25 00:50:58;;;;;;;12.32;8.43;;;8.10;99.90;;;;;;5051261;28;20213;-65
2023/10/25 00:53:27;;;;;;;10.27;9.25;;;8.00;99.90;;;;;;5049004;28;20289;-65
2023/10/25 00:55:57;;;;;;;7.78;7.00;;;8.00;99.90;;;;;;5051562;28;20313;-65
2023/10/25 00:58:24;;;;;;;7.82;7.05;;;8.00;99.90;;;;;;5051680;28;20234;-65
2023/10/25 01:00:53;;;;;;;7.85;6.75;;;8.00;99.90;;;;;;5050350;28;20210;-65
2023/10/25 01:03:21;;;;;;;8.32;6.95;;;8.00;99.90;;;;;;5051548;28;20229;-65
2023/10/25 01:05:49;;;;;;;8.48;7.18;;;8.00;99.90;;;;;;5051383;28;20313;-65
2023/10/25 01:08:18;;;;;;;9.98;7.72;;;8.10;99.90;;;;;;5051439;28;20712;-65
2023/10/25 01:10:45;;;;;;;10.98;8.25;;;8.10;99.90;;;;;;5051640;28;20319;-65
2023/10/25 01:13:13;;;;;;;9.10;7.90;;;8.10;99.90;;;;;;5051735;28;20206;-66
2023/10/25 01:15:40;;;;;;;9.98;7.18;;;8.10;99.90;;;;;;5051491;28;20228;-65
2023/10/25 01:18:07;;;;;;;9.23;8.23;;;8.10;99.90;;;;;;5051660;28;20238;-66
2023/10/25 01:20:34;;;;;;;18.27;9.27;;;8.10;99.90;;;;;;5051598;28;20213;-65
2023/10/25 01:23:02;;;;;;;11.80;8.60;;;8.10;99.90;;;;;;5051349;28;20765;-65
2023/10/25 01:25:29;;;;;;;14.77;8.15;;;8.10;99.90;;;;;;5051422;28;20202;-65
2023/10/25 01:27:57;;;;;;;10.02;8.70;;;8.10;99.90;;;;;;5051684;28;20236;-65
2023/10/25 01:30:24;;;;;;;14.85;8.25;;;8.10;99.90;;;;;;5051685;28;20215;-65
2023/10/25 01:32:51;;;;;;;9.95;8.80;;;8.20;99.90;;;;;;5051491;28;20289;-65
2023/10/25 01:35:18;;;;;;;13.52;9.98;;;8.20;99.90;;;;;;5050508;28;20206;-65
2023/10/25 01:37:45;;;;;;;9.88;8.88;;;8.20;99.90;;;;;;5051021;28;20232;-65
2023/10/25 01:40:13;;;;;;;11.60;8.10;;;8.20;99.90;;;;;;5051435;28;20706;-65
2023/10/25 01:42:40;;;;;;;12.52;8.10;;;8.20;99.90;;;;;;5051221;28;20229;-65
2023/10/25 01:45:07;;;;;;;11.98;9.10;;;8.20;99.90;;;;;;5051107;28;20211;-65
2023/10/25 01:47:34;;;;;;;12.50;8.00;;;8.20;99.90;;;;;;5051167;28;20298;-65
2023/10/25 01:50:01;;;;;;;30.55;9.30;;;8.30;99.90;;;;;;5051194;28;20212;-65
2023/10/25 01:52:28;;;;;;;12.70;8.43;;;8.20;99.90;;;;;;5051420;28;20320;-65
2023/10/25 01:54:55;;;;;;;11.15;10.15;;;8.30;99.90;;;;;;5050671;28;20206;-65
2023/10/25 01:57:23;;;;;;;13.50;8.07;;;8.20;99.90;;;;;;5051020;28;20800;-65
2023/10/25 01:59:50;;;;;;;15.85;8.80;;;8.30;99.90;;;;;;5050420;28;20210;-65
2023/10/25 02:02:18;;;;;;;10.73;8.18;;;8.30;99.90;;;;;;5050758;28;20230;-65
2023/10/25 02:04:45;;;;;;;14.18;8.15;;;8.30;99.90;;;;;;5050987;28;20735;-65
2023/10/25 02:07:12;;;;;;;15.98;8.85;;;8.30;99.90;;;;;;5050940;28;20301;-65
2023/10/25 02:09:38;;;;;;;19.08;9.85;;;8.30;99.90;;;;;;5050972;28;20230;-65
2023/10/25 02:12:06;;;;;;;13.70;10.00;;;8.40;99.90;;;;;;5050727;28;20233;-65
2023/10/25 02:14:34;;;;;;;11.88;9.18;;;8.40;99.90;;;;;;5050265;28;20210;-65
2023/10/25 02:17:01;;;;;;;14.63;9.52;;;8.40;99.90;;;;;;5050573;28;20210;-65
2023/10/25 02:19:28;;;;;;;12.90;9.38;;;8.40;99.90;;;;;;5050608;28;20256;-65
2023/10/25 02:21:54;;;;;;;9.50;8.60;;;8.40;99.90;;;;;;5050623;28;20202;-65
2023/10/25 02:24:21;;;;;;;12.90;9.30;;;8.40;99.90;;;;;;5050656;28;20208;-65
2023/10/25 02:26:50;;;;;;;11.27;8.98;;;8.50;99.90;;;;;;5050717;28;20206;-65
2023/10/25 02:29:17;;;;;;;10.95;8.77;;;8.50;99.90;;;;;;5050668;28;20231;-65
2023/10/25 02:31:45;;;;;;;13.38;10.40;;;8.50;99.90;;;;;;5050676;28;20597;-65
2023/10/25 02:34:12;;;;;;;10.55;8.25;;;8.50;99.90;;;;;;5050713;28;20209;-65
2023/10/25 02:36:38;;;;;;;12.23;8.95;;;8.50;99.90;;;;;;5050594;28;20229;-65
2023/10/25 02:39:05;;;;;;;10.70;9.43;;;8.50;99.90;;;;;;5050749;28;20226;-65
2023/10/25 02:41:32;;;;;;;10.43;8.70;;;8.50;99.90;;;;;;5050709;28;20592;-65
2023/10/25 02:43:59;;;;;;;11.57;8.90;;;8.50;99.90;;;;;;5050409;28;20226;-65
2023/10/25 02:46:26;;;;;;;10.13;9.15;;;8.50;99.90;;;;;;5050132;28;20290;-65
2023/10/25 02:48:55;;;;;;;10.27;7.80;;;8.50;99.90;;;;;;5053731;28;20309;-65
2023/10/25 02:51:21;;;;;;;10.57;8.63;;;8.50;99.90;;;;;;5054188;28;20305;-65
2023/10/25 02:53:48;;;;;;;9.30;7.80;;;8.50;99.90;;;;;;5053911;28;20202;-65
2023/10/25 02:56:15;;;;;;;10.25;8.57;;;8.50;99.90;;;;;;5053904;28;20212;-65
2023/10/25 02:58:42;;;;;;;12.50;8.48;;;8.60;99.90;;;;;;5053710;28;20252;-65
2023/10/25 03:01:08;;;;;;;10.10;8.90;;;8.60;99.90;;;;;;5053532;28;20213;-65
2023/10/25 03:03:35;;;;;;;11.27;9.52;;;8.60;99.90;;;;;;5053895;28;20606;-65
2023/10/25 03:06:04;;;;;;;11.20;8.65;;;8.70;99.90;;;;;;5053845;28;20298;-65
2023/10/25 03:08:31;;;;;;;9.48;8.05;;;8.70;99.90;;;;;;5053727;28;20233;-66
2023/10/25 03:10:58;;;;;;;15.73;8.80;;;8.70;99.90;;;;;;5053830;28;20212;-65
2023/10/25 03:13:25;;;;;;;10.15;8.30;;;8.70;99.90;;;;;;5052403;28;20208;-65
2023/10/25 03:15:51;;;;;;;10.02;9.02;;;8.70;99.90;;;;;;5053496;28;20297;-65
2023/10/25 03:18:18;;;;;;;9.63;7.22;;;8.80;99.90;;;;;;5053020;28;20222;-65
2023/10/25 03:20:45;;;;;;;9.07;8.02;;;8.80;99.90;;;;;;5053549;28;20203;-65
2023/10/25 03:23:13;;;;;;;8.40;7.25;;;8.80;99.90;;;;;;5053387;28;20225;-65
2023/10/25 03:25:40;;;;;;;12.73;9.40;;;8.80;99.90;;;;;;5053081;28;20207;-65
2023/10/25 03:28:07;;;;;;;10.45;8.70;;;8.80;99.90;;;;;;5053440;28;20611;-65
2023/10/25 03:30:36;;;;;;;11.88;9.00;;;8.90;99.90;;;;;;5053221;28;20241;-65
2023/10/25 03:33:03;;;;;;;12.68;9.15;;;8.90;99.90;;;;;;5053378;28;20293;-65
2023/10/25 03:35:30;;;;;;;11.10;9.00;;;8.90;99.90;;;;;;5052937;28;20210;-65
2023/10/25 03:37:57;;;;;;;12.23;8.20;;;8.90;99.90;;;;;;5053222;28;20222;-65
2023/10/25 03:40:25;;;;;;;8.93;7.70;;;9.00;99.90;;;;;;5052798;28;20224;-65
2023/10/25 03:42:52;;;;;;;9.55;7.47;;;9.00;99.90;;;;;;5052944;28;20730;-65
2023/10/25 03:45:19;;;;;;;9.45;7.55;;;9.00;99.90;;;;;;5053052;28;20206;-65
2023/10/25 03:47:46;;;;;;;10.35;8.93;;;9.00;99.90;;;;;;5052959;28;20746;-65
2023/10/25 03:50:13;;;;;;;11.57;8.73;;;9.00;99.90;;;;;;5053093;28;20297;-65
2023/10/25 03:52:40;;;;;;;9.40;8.50;;;9.00;99.90;;;;;;5052857;28;20532;-65
2023/10/25 03:55:08;;;;;;;9.43;8.25;;;9.10;99.90;;;;;;5052828;28;20213;-65
2023/10/25 03:57:36;;;;;;;11.77;7.70;;;9.10;99.90;;;;;;5052968;28;20210;-65
2023/10/25 04:00:03;;;;;;;10.55;8.52;;;9.20;99.90;;;;;;5052961;28;20441;-65
2023/10/25 04:02:30;;;;;;;9.35;8.05;;;9.20;99.90;;;;;;5052756;28;20305;-65
2023/10/25 04:04:57;;;;;;;10.60;8.57;;;9.20;99.90;;;;;;5052486;28;20313;-65
2023/10/25 04:07:24;;;;;;;11.75;9.43;;;9.20;99.90;;;;;;5052913;28;20455;-65
2023/10/25 04:09:51;;;;;;;11.35;9.75;;;9.30;99.90;;;;;;5052869;28;20651;-65
2023/10/25 04:12:17;;;;;;;11.60;9.30;;;9.30;99.90;;;;;;5052724;28;20214;-66
2023/10/25 04:14:46;;;;;;;12.77;9.30;;;9.30;99.90;;;;;;5052297;28;20680;-65
2023/10/25 04:17:13;;;;;;;9.88;8.65;;;9.30;99.90;;;;;;5052522;28;20217;-65
2023/10/25 04:19:40;;;;;;;10.52;8.18;;;9.30;99.90;;;;;;5052334;28;20226;-65
2023/10/25 04:22:07;;;;;;;9.55;8.00;;;9.30;99.90;;;;;;5052392;28;20212;-66
2023/10/25 04:24:34;;;;;;;9.27;8.25;;;9.30;99.90;;;;;;5052015;28;20230;-66
2023/10/25 04:27:02;;;;;;;10.25;8.65;;;9.30;99.90;;;;;;5052476;28;20212;-65
2023/10/25 04:29:29;;;;;;;11.73;9.30;;;9.30;99.90;;;;;;5052380;28;20645;-66
2023/10/25 04:31:57;;;;;;;10.55;8.30;;;9.30;99.90;;;;;;5051939;28;20443;-66
2023/10/25 04:34:24;;;;;;;11.10;10.00;;;9.40;99.90;;;;;;5051809;28;20234;-66
2023/10/25 04:36:51;;;;;;;11.93;8.17;;;9.40;99.90;;;;;;5051993;28;20213;-65
2023/10/25 04:39:18;;;;;;;11.53;9.43;;;9.40;99.90;;;;;;5052449;28;20467;-66
2023/10/25 04:41:45;;;;;;;12.15;10.38;;;9.50;99.90;;;;;;5051583;28;20456;-66
2023/10/25 04:44:13;;;;;;;13.45;10.65;;;9.50;99.90;;;;;;5052085;28;20228;-65
2023/10/25 04:46:40;;;;;;;11.40;9.97;;;9.50;99.90;;;;;;5051459;28;20219;-65
2023/10/25 04:49:08;;;;;;;16.60;10.67;;;9.50;99.90;;;;;;5051721;28;20982;-65
2023/10/25 04:51:35;;;;;;;11.65;9.18;;;9.60;99.90;;;;;;5052098;28;20449;-65
2023/10/25 04:54:02;;;;;;;12.70;8.55;;;9.60;99.90;;;;;;5051978;28;20583;-65
2023/10/25 04:56:29;;;;;;;9.70;8.30;;;9.60;99.90;;;;;;5051713;28;20210;-65
2023/10/25 04:58:56;;;;;;;14.50;8.65;;;9.60;99.90;;;;;;5051446;28;20476;-66
2023/10/25 05:01:23;;;;;;;10.40;9.32;;;9.60;99.90;;;;;;5051588;28;20237;-66
2023/10/25 05:03:49;;;;;;;12.43;9.55;;;9.60;99.90;;;;;;5051840;28;20240;-66
2023/10/25 05:06:18;;;;;;;11.30;9.13;;;9.60;99.90;;;;;;5051523;28;20645;-66
2023/10/25 05:08:45;;;;;;;12.77;11.10;;;9.60;99.90;;;;;;5051423;28;20469;-66
2023/10/25 05:11:15;;;;;;;12.07;8.70;;;9.70;99.90;;;;;;5050891;28;20476;-65
2023/10/25 05:13:43;;;;;;;10.50;9.27;;;9.70;99.90;;;;;;5051504;28;21016;-65
2023/10/25 05:16:11;;;;;;;13.55;10.75;;;9.70;99.90;;;;;;5051282;28;20980;-65
2023/10/25 05:18:39;;;;;;;14.47;11.87;;;9.80;99.90;;;;;;5051718;28;20320;-66
2023/10/25 05:21:06;;;;;;;16.73;11.37;;;9.80;99.90;;;;;;5051855;28;20455;-65
2023/10/25 05:23:36;;;;;;;17.42;11.73;;;9.80;99.90;;;;;;5051270;28;20523;-65
2023/10/25 05:26:04;;;;;;;17.47;13.20;;;9.80;99.90;;;;;;5051165;28;20238;-65
2023/10/25 05:28:32;;;;;;;17.87;11.80;;;9.90;99.90;;;;;;5051270;28;20891;-65
2023/10/25 05:31:02;;;;;;;21.20;15.17;;;9.90;99.90;;;;;;5051480;28;20453;-66
2023/10/25 05:33:32;;;;;;;22.80;15.57;;;9.90;99.90;;;;;;5050182;28;20545;-66
2023/10/25 05:35:59;;;;;;;24.97;17.93;;;10.00;99.90;;;;;;5051026;28;20672;-65
2023/10/25 05:38:27;;;;;;;27.67;20.23;;;10.00;99.90;;;;;;5050242;28;20472;-65
2023/10/25 05:40:55;;;;;;;32.20;22.07;;;10.00;99.90;;;;;;5050988;28;20532;-66
2023/10/25 05:43:27;;;;;;;27.50;18.30;;;10.10;99.90;;;;;;5051095;28;20493;-65
2023/10/25 05:45:54;;;;;;;42.57;25.33;;;10.10;99.90;;;;;;5050836;28;20449;-66
2023/10/25 05:48:22;;;;;;;40.50;22.77;;;10.10;99.90;;;;;;5051079;28;20473;-65
2023/10/25 05:50:51;;;;;;;44.57;27.27;;;10.20;99.90;;;;;;5051378;28;20235;-65
2023/10/25 05:53:19;;;;;;;31.63;21.90;;;10.20;99.90;;;;;;5051320;28;20492;-66
2023/10/25 05:55:47;;;;;;;29.07;18.40;;;10.20;99.90;;;;;;5050970;28;20445;-65
2023/10/25 05:58:16;;;;;;;26.77;19.27;;;10.20;99.90;;;;;;5051123;28;20477;-66
2023/10/25 06:00:48;;;;;;;25.90;18.33;;;10.30;99.90;;;;;;5051014;28;20453;-66
2023/10/25 06:03:19;;;;;;;24.87;17.67;;;10.30;99.90;;;;;;5051178;28;20536;-66
2023/10/25 06:05:50;;;;;;;21.40;16.80;;;10.30;99.90;;;;;;5050930;28;20460;-66
2023/10/25 06:08:18;;;;;;;26.53;18.57;;;10.30;99.90;;;;;;5050938;28;20922;-65
2023/10/25 06:10:45;;;;;;;27.30;18.40;;;10.30;99.90;;;;;;5051443;28;20448;-66
2023/10/25 06:13:12;;;;;;;26.43;17.87;;;10.40;99.90;;;;;;5051314;28;20487;-66
2023/10/25 06:15:40;;;;;;;22.43;17.10;;;10.40;99.90;;;;;;5050904;28;20495;-66
2023/10/25 06:18:09;;;;;;;27.13;19.53;;;10.40;99.90;;;;;;5050750;28;20548;-66
2023/10/25 06:20:36;;;;;;;24.47;18.40;;;10.50;99.90;;;;;;5049696;28;20445;-66
2023/10/25 06:23:03;;;;;;;22.37;17.00;;;10.40;99.90;;;;;;5052063;28;20444;-66
2023/10/25 06:25:30;;;;;;;23.87;17.03;;;10.50;99.90;;;;;;5053563;28;20510;-66
2023/10/25 06:27:59;;;;;;;20.90;16.50;;;10.50;99.90;;;;;;5053574;28;20496;-66
2023/10/25 06:30:26;;;;;;;25.37;17.00;;;10.50;99.90;;;;;;5053829;28;20210;-66
2023/10/25 06:32:54;;;;;;;26.27;16.60;;;10.50;99.90;;;;;;5054539;28;20448;-66
2023/10/25 06:35:21;;;;;;;23.27;15.60;;;10.60;99.90;;;;;;5054507;28;20536;-66
2023/10/25 06:37:49;;;;;;;24.30;17.70;;;10.60;99.90;;;;;;5054610;28;20471;-66
2023/10/25 06:40:16;;;;;;;26.90;16.30;;;10.60;99.90;;;;;;5054932;28;20447;-66
2023/10/25 06:42:44;;;;;;;21.33;16.20;;;10.70;99.90;;;;;;5054568;28;20502;-66
2023/10/25 06:45:14;;;;;;;24.77;18.53;;;10.70;99.90;;;;;;5054259;28;20571;-66
2023/10/25 06:47:42;;;;;;;27.23;18.10;;;10.70;99.90;;;;;;5054527;28;20527;-66
2023/10/25 06:50:12;;;;;;;24.50;17.13;;;10.80;99.90;;;;;;5053939;28;20458;-66
2023/10/25 06:52:40;;;;;;;21.87;17.07;;;10.80;99.90;;;;;;5054140;28;20973;-66
2023/10/25 06:55:08;;;;;;;20.30;16.50;;;10.80;99.90;;;;;;5053839;28;20475;-66
2023/10/25 06:57:35;;;;;;;24.40;18.50;;;10.80;99.90;;;;;;5054053;28;20476;-66
2023/10/25 07:00:06;;;;;;;24.43;17.67;;;10.90;99.90;;;;;;5054173;28;20447;-66
2023/10/25 07:02:39;;;;;;;26.83;19.33;;;10.90;99.90;;;;;;5052853;28;20449;-66
2023/10/25 07:05:13;;;;;;;31.83;21.43;;;10.90;99.90;;;;;;5052534;28;20838;-66
2023/10/25 07:07:41;;;;;;;30.33;20.70;;;10.90;99.90;;;;;;5050766;28;20452;-66
2023/10/25 07:10:09;;;;;;;33.70;20.63;;;11.00;99.90;;;;;;5053924;28;20449;-66
2023/10/25 07:12:36;;;;;;;30.10;20.47;;;11.00;99.90;;;;;;5053571;28;20821;-66
2023/10/25 07:15:03;;;;;;;29.37;19.67;;;11.00;99.90;;;;;;5052856;28;20527;-66
2023/10/25 07:17:30;;;;;;;25.50;17.50;;;11.00;99.90;;;;;;5075490;22;20520;-66
2023/10/25 07:19:58;;;;;;;25.90;18.33;;;11.00;99.90;;;;;;5052848;28;20445;-66
2023/10/25 07:22:26;;;;;;;26.40;20.53;;;11.00;99.90;;;;;;5053486;28;20499;-66
2023/10/25 07:24:53;;;;;;;26.97;20.00;;;11.00;99.90;;;;;;5050986;28;20487;-66
2023/10/25 07:27:20;;;;;;;27.57;21.53;;;11.00;99.90;;;;;;5053303;28;20544;-67
2023/10/25 07:29:47;;;;;;;27.00;18.67;;;11.10;99.90;;;;;;5052569;28;20821;-66
2023/10/25 07:32:14;;;;;;;33.30;20.10;;;11.00;99.90;;;;;;5053599;28;20449;-66
2023/10/25 07:34:41;;;;;;;28.23;21.60;;;11.10;99.90;;;;;;5049570;28;20467;-66
2023/10/25 07:37:08;;;;;;;34.87;26.57;;;11.10;99.90;;;;;;5053214;28;20864;-65
2023/10/25 07:39:36;;;;;;;37.20;23.90;;;11.10;99.90;;;;;;5048423;28;20449;-66
2023/10/25 07:42:03;;;;;;;28.90;22.43;;;11.20;99.90;;;;;;5049668;28;21021;-65
2023/10/25 07:44:30;;;;;;;33.20;23.17;;;11.20;99.90;;;;;;5051952;28;21066;-65
2023/10/25 07:46:57;;;;;;;30.67;22.47;;;11.20;99.90;;;;;;5053181;28;20441;-66
2023/10/25 07:49:23;;;;;;;33.63;24.40;;;11.20;99.90;;;;;;5052238;28;20460;-66
2023/10/25 07:51:52;;;;;;;32.23;25.53;;;11.20;99.90;;;;;;5052864;28;20464;-67
2023/10/25 07:54:19;;;;;;;36.07;25.97;;;11.20;99.90;;;;;;5044569;28;20453;-66
2023/10/25 07:56:47;;;;;;;35.23;25.07;;;11.30;99.90;;;;;;5052485;28;20449;-66
2023/10/25 07:59:14;;;;;;;34.53;21.77;;;11.30;99.90;;;;;;5052057;28;20483;-67
2023/10/25 08:01:41;;;;;;;27.87;21.80;;;11.30;99.90;;;;;;5052811;28;20826;-66
2023/10/25 08:04:08;;;;;;;26.07;20.93;;;11.40;99.90;;;;;;5051937;28;20496;-66
2023/10/25 08:06:35;;;;;;;24.37;19.00;;;11.30;99.90;;;;;;5052067;28;20869;-66
2023/10/25 08:09:02;;;;;;;22.43;18.30;;;11.30;99.90;;;;;;5050273;28;20472;-65
2023/10/25 08:11:34;;;;;;;20.70;16.30;;;11.30;99.90;;;;;;5051988;28;20524;-66
2023/10/25 08:14:02;;;;;;;19.73;16.50;;;11.30;99.90;;;;;;5051555;28;20456;-65
2023/10/25 08:16:29;;;;;;;21.13;17.47;;;11.40;99.90;;;;;;5043987;28;20437;-66
2023/10/25 08:18:56;;;;;;;19.63;15.80;;;11.40;99.90;;;;;;5051244;28;20476;-65
2023/10/25 08:21:23;;;;;;;24.03;17.57;;;11.40;99.90;;;;;;5048110;28;20448;-65
2023/10/25 08:23:51;;;;;;;22.93;17.00;;;11.50;99.90;;;;;;5051986;28;20473;-67
2023/10/25 08:26:18;;;;;;;20.43;17.33;;;11.50;99.90;;;;;;5052167;28;20898;-66
2023/10/25 08:28:45;;;;;;;22.03;17.83;;;11.50;99.90;;;;;;5052566;28;20467;-66
2023/10/25 08:31:16;;;;;;;19.27;16.70;;;11.50;99.90;;;;;;5052566;28;20452;-66
2023/10/25 08:33:43;;;;;;;24.47;19.07;;;11.50;99.90;;;;;;5052281;28;20452;-66
2023/10/25 08:36:10;;;;;;;26.10;19.97;;;11.50;99.90;;;;;;5051766;28;20441;-66
2023/10/25 08:38:37;;;;;;;27.97;21.07;;;11.50;99.90;;;;;;5050652;28;20919;-65
2023/10/25 08:41:05;;;;;;;33.80;24.57;;;11.50;99.90;;;;;;5051841;28;20449;-66
2023/10/25 08:43:33;;;;;;;35.93;25.03;;;11.50;99.90;;;;;;5051206;28;20487;-66
2023/10/25 08:46:03;;;;;;;46.10;25.60;;;11.50;99.90;;;;;;5049676;28;20489;-66
2023/10/25 08:48:31;;;;;;;41.50;28.27;;;11.60;99.90;;;;;;5046836;28;20465;-66
2023/10/25 08:51:00;;;;;;;40.83;26.73;;;11.60;99.90;;;;;;5051040;28;20456;-65
2023/10/25 08:53:29;;;;;;;39.80;28.03;;;11.60;99.90;;;;;;5051159;28;20982;-66
2023/10/25 08:55:57;;;;;;;47.03;26.70;;;11.60;99.90;;;;;;5050613;28;20451;-66
2023/10/25 08:58:25;;;;;;;38.00;24.00;;;11.60;99.90;;;;;;5051092;28;21207;-65
2023/10/25 09:00:53;;;;;;;37.67;24.97;;;11.60;99.90;;;;;;5049969;28;20452;-66
2023/10/25 09:03:43;;;;;;;36.80;22.73;;;11.60;99.90;;;;;;5049371;28;20528;-65
2023/10/25 09:06:12;;;;;;;26.53;20.97;;;11.60;99.90;;;;;;5049379;28;20931;-65
2023/10/25 09:08:39;;;;;;;31.83;23.33;;;11.60;99.90;;;;;;5049837;28;20556;-66
2023/10/25 09:11:08;;;;;;;32.20;22.97;;;11.70;99.90;;;;;;5049982;28;20449;-65
2023/10/25 09:13:37;;;;;;;29.17;22.50;;;11.80;99.90;;;;;;5049225;28;20507;-65
2023/10/25 09:16:06;;;;;;;30.30;21.17;;;11.90;99.90;;;;;;5049452;28;20447;-65
2023/10/25 09:18:34;;;;;;;24.57;19.60;;;12.00;99.90;;;;;;5047676;28;20476;-65
2023/10/25 09:21:03;;;;;;;21.50;16.90;;;12.10;99.90;;;;;;5049935;28;20456;-65
2023/10/25 09:23:30;;;;;;;19.60;16.93;;;12.20;99.90;;;;;;5050857;28;20472;-65
2023/10/25 09:25:58;;;;;;;19.73;17.63;;;12.30;99.90;;;;;;5050157;28;20572;-65
2023/10/25 09:28:28;;;;;;;17.57;15.60;;;12.30;99.90;;;;;;5050392;28;20551;-65
2023/10/25 09:30:55;;;;;;;18.87;16.10;;;12.40;99.90;;;;;;5050351;28;20533;-65
2023/10/25 09:33:22;;;;;;;22.80;17.67;;;12.50;99.90;;;;;;5050693;28;20444;-65
2023/10/25 09:35:50;;;;;;;19.07;16.63;;;12.60;99.90;;;;;;5049608;28;20524;-65
2023/10/25 09:38:18;;;;;;;18.67;16.87;;;12.60;99.90;;;;;;5050593;28;20619;-65
2023/10/25 09:40:46;;;;;;;17.73;15.87;;;12.70;99.90;;;;;;5050520;28;20810;-65
2023/10/25 09:43:16;;;;;;;19.00;15.10;;;12.80;99.90;;;;;;5049951;28;20467;-65
2023/10/25 09:45:47;;;;;;;20.40;17.13;;;12.90;99.90;;;;;;5049553;28;20487;-65
2023/10/25 09:48:16;;;;;;;25.10;15.97;;;13.00;99.90;;;;;;5050229;28;20893;-65
2023/10/25 09:50:49;;;;;;;15.67;13.70;;;13.00;99.90;;;;;;5050329;28;20449;-65
2023/10/25 09:53:23;;;;;;;17.90;16.13;;;13.10;99.90;;;;;;5050328;28;20452;-65
2023/10/25 09:55:55;;;;;;;16.33;14.80;;;13.20;99.90;;;;;;5050384;28;20548;-65
2023/10/25 09:58:23;;;;;;;17.80;15.97;;;13.20;99.90;;;;;;5054217;28;20492;-65
2023/10/25 10:00:50;;;;;;;18.57;16.70;;;13.20;99.90;;;;;;5054273;28;20510;-66
2023/10/25 10:03:26;;;;;;;16.73;14.73;;;13.20;99.90;;;;;;5054195;28;20445;-65
2023/10/25 10:06:09;;;;;;;17.80;15.90;;;13.30;99.90;;;;;;5053900;28;20484;-66
2023/10/25 10:08:44;;;;;;;18.23;15.90;;;13.30;99.90;;;;;;5054370;28;20531;-66
2023/10/25 10:11:17;;;;;;;18.00;13.53;;;13.40;99.90;;;;;;5053634;28;20523;-65
2023/10/25 10:13:44;;;;;;;18.60;14.47;;;13.40;99.90;;;;;;5054348;28;20441;-65
2023/10/25 10:16:15;;;;;;;15.27;13.57;;;13.50;99.90;;;;;;5053852;28;20447;-65
2023/10/25 10:18:45;;;;;;;13.50;12.10;;;13.60;99.90;;;;;;5053419;28;20476;-65
2023/10/25 10:21:14;;;;;;;15.47;13.90;;;13.70;99.90;;;;;;5054054;28;20455;-65
2023/10/25 10:23:49;;;;;;;9.40;8.70;;;13.90;99.90;;;;;;5053742;28;20449;-65
2023/10/25 10:26:48;;;;;;;8.90;8.13;;;14.10;99.90;;;;;;5053697;28;20483;-66
2023/10/25 10:29:39;;;;;;;8.03;7.33;;;14.20;99.90;;;;;;5054114;28;21054;-65
2023/10/25 10:32:07;;;;;;;6.33;5.83;;;14.30;99.90;;;;;;5053867;28;20483;-65
2023/10/25 10:34:43;;;;;;;6.00;5.50;;;14.40;99.90;;;;;;5053681;28;20437;-65
2023/10/25 10:37:11;;;;;;;7.30;6.80;;;14.40;99.90;;;;;;5052746;28;20519;-65
2023/10/25 10:40:14;;;;;;;5.67;5.27;;;14.40;99.90;;;;;;5042501;28;20983;-65
2023/10/25 10:42:42;;;;;;;6.63;5.87;;;14.30;99.90;;;;;;5046336;28;20467;-65
2023/10/25 10:45:13;;;;;;;4.60;4.30;;;14.30;99.90;;;;;;5048885;28;20484;-65
2023/10/25 10:47:42;;;;;;;4.73;4.33;;;14.30;99.90;;;;;;5053138;28;20460;-65
2023/10/25 10:50:12;;;;;;;4.30;4.00;;;14.30;99.90;;;;;;5050871;28;20536;-64
2023/10/25 10:52:40;;;;;;;6.00;4.70;;;14.30;99.90;;;;;;5053767;28;20449;-65
2023/10/25 10:55:10;;;;;;;6.00;4.40;;;14.40;99.90;;;;;;5052640;28;20462;-65
2023/10/25 10:57:37;;;;;;;5.87;5.47;;;14.40;99.90;;;;;;5053540;28;21028;-65
2023/10/25 11:00:07;;;;;;;6.27;5.67;;;14.40;99.90;;;;;;5051062;28;20461;-65
2023/10/25 11:02:35;;;;;;;5.07;4.77;;;14.40;99.90;;;;;;5053558;28;20449;-65
2023/10/25 11:05:02;;;;;;;6.77;6.23;;;14.40;99.90;;;;;;5052180;28;21085;-65
2023/10/25 11:07:28;;;;;;;6.37;5.87;;;14.30;99.90;;;;;;5053100;28;20458;-65
2023/10/25 11:09:56;;;;;;;7.10;6.50;;;14.30;99.90;;;;;;5052214;28;20997;-65
2023/10/25 11:12:24;;;;;;;6.90;6.40;;;14.30;99.90;;;;;;5053595;28;20540;-66
2023/10/25 11:14:52;;;;;;;7.07;6.50;;;14.20;99.90;;;;;;5052103;28;20985;-65
2023/10/25 11:17:19;;;;;;;7.70;7.20;;;14.20;99.90;;;;;;5053385;28;20476;-65
2023/10/25 11:19:47;;;;;;;6.43;6.03;;;14.10;99.90;;;;;;5051241;28;20533;-65
2023/10/25 11:22:14;;;;;;;6.83;6.33;;;14.10;99.90;;;;;;5053386;28;20506;-64
2023/10/25 11:24:41;;;;;;;6.93;6.23;;;14.00;99.90;;;;;;5052282;28;20854;-65
2023/10/25 11:27:08;;;;;;;7.43;6.80;;;13.90;99.90;;;;;;5054088;28;20567;-64
2023/10/25 11:29:37;;;;;;;8.83;8.03;;;13.70;99.90;;;;;;5053621;28;20460;-65
2023/10/25 11:32:11;;;;;;;8.40;7.50;;;13.70;99.90;;;;;;5055960;28;20477;-64
2023/10/25 11:34:41;;;;;;;7.80;7.00;;;13.50;99.90;;;;;;5049897;28;20456;-64
2023/10/25 11:37:08;;;;;;;9.90;8.10;;;13.40;99.90;;;;;;5054029;28;20460;-65
2023/10/25 11:39:56;;;;;;;9.93;8.90;;;13.30;99.90;;;;;;5047634;28;20473;-64
2023/10/25 11:42:26;;;;;;;10.07;9.03;;;13.20;99.90;;;;;;5056029;28;20520;-65
2023/10/25 11:44:54;;;;;;;10.03;9.10;;;13.10;99.90;;;;;;5049035;28;20892;-65
2023/10/25 11:50:46;;;;;;;9.90;9.00;;;13.00;99.90;;;;;;5050003;28;20412;-65
2023/10/25 11:53:14;;;;;;;11.43;10.20;;;12.90;99.90;;;;;;5054293;28;21125;-65
2023/10/25 11:55:41;;;;;;;12.13;11.03;;;12.90;99.90;;;;;;5046382;28;20438;-65
2023/10/25 11:58:08;;;;;;;10.50;9.57;;;12.90;99.90;;;;;;5053379;28;20479;-64
2023/10/25 12:00:36;;;;;;;12.00;10.90;;;12.90;99.90;;;;;;5054340;28;20437;-65
2023/10/25 12:03:03;;;;;;;11.67;9.77;;;12.90;99.90;;;;;;5054048;28;20441;-65
2023/10/25 12:05:30;;;;;;;12.53;10.47;;;12.90;99.90;;;;;;5053304;28;20492;-65
2023/10/25 12:07:57;;;;;;;13.83;11.07;;;13.00;99.90;;;;;;5053256;28;21021;-64
2023/10/25 12:10:24;;;;;;;13.20;12.00;;;13.00;99.90;;;;;;5049195;28;20528;-65
2023/10/25 12:12:51;;;;;;;15.30;11.83;;;13.00;99.90;;;;;;5042833;28;20524;-64
2023/10/25 12:15:18;;;;;;;11.50;10.30;;;13.00;99.90;;;;;;5052844;28;20445;-65
2023/10/25 12:17:46;;;;;;;12.07;10.90;;;13.10;99.90;;;;;;5053009;28;20476;-65
2023/10/25 12:20:13;;;;;;;12.23;11.03;;;13.10;99.90;;;;;;5052927;28;20528;-65
2023/10/25 12:22:40;;;;;;;12.47;11.00;;;13.20;99.90;;;;;;5053630;28;20536;-65
2023/10/25 12:25:07;;;;;;;13.37;11.33;;;13.20;99.90;;;;;;5053020;28;20447;-64
2023/10/25 12:27:34;;;;;;;13.83;12.40;;;13.10;99.90;;;;;;5053228;28;20483;-65
2023/10/25 12:30:01;;;;;;;12.90;11.70;;;13.20;99.90;;;;;;5052694;28;20533;-64
2023/10/25 12:32:29;;;;;;;12.83;11.53;;;13.20;99.90;;;;;;5052217;28;20465;-65
2023/10/25 12:34:58;;;;;;;12.13;10.80;;;13.20;99.90;;;;;;5052634;28;21016;-65
2023/10/25 12:37:25;;;;;;;14.00;11.47;;;13.20;99.90;;;;;;5052677;28;20552;-65
2023/10/25 12:39:52;;;;;;;13.37;11.30;;;13.20;99.90;;;;;;5052947;28;20452;-64
2023/10/25 12:42:19;;;;;;;15.97;12.47;;;13.20;99.90;;;;;;5052919;28;20904;-63
2023/10/25 12:44:46;;;;;;;13.53;12.17;;;13.20;99.90;;;;;;5052067;28;20545;-65
2023/10/25 12:47:13;;;;;;;13.37;11.83;;;13.20;99.90;;;;;;5053108;28;20491;-64